sensor_id;sensor_type;location;lat;lon;timestamp;temperature;humidity
39325;DHT22;25037;49.488;9.900;2023-07-22T00:00:31;17.40;67.80
39325;DHT22;25037;49.488;9.900;2023-07-22T00:02:58;17.40;67.90
39325;DHT22;25037;49.488;9.900;2023-07-22T00:05:25;17.40;67.90
39325;DHT22;25037;49.488;9.900;2023-07-22T00:07:52;17.50;67.90
39325;DHT22;25037;49.488;9.900;2023-07-22T00:10:19;17.50;68.00
39325;DHT22;25037;49.488;9.900;2023-07-22T00:12:46;17.50;67.90
39325;DHT22;25037;49.488;9.900;2023-07-22T00:15:13;17.60;67.90
39325;DHT22;25037;49.488;9.900;2023-07-22T00:17:40;17.50;67.80
39325;DHT22;25037;49.488;9.900;2023-07-22T00:20:08;17.60;67.80
39325;DHT22;25037;49.488;9.900;2023-07-22T00:22:40;17.60;67.80
39325;DHT22;25037;49.488;9.900;2023-07-22T00:25:11;17.60;67.80
39325;DHT22;25037;49.488;9.900;2023-07-22T00:27:39;17.50;67.70
39325;DHT22;25037;49.488;9.900;2023-07-22T00:30:09;17.50;67.80
39325;DHT22;25037;49.488;9.900;2023-07-22T00:32:36;17.50;67.90
39325;DHT22;25037;49.488;9.900;2023-07-22T00:35:07;17.50;67.90
39325;DHT22;25037;49.488;9.900;2023-07-22T00:37:34;17.50;68.00
39325;DHT22;25037;49.488;9.900;2023-07-22T00:40:01;17.60;68.00
39325;DHT22;25037;49.488;9.900;2023-07-22T00:42:28;17.60;67.70
39325;DHT22;25037;49.488;9.900;2023-07-22T00:44:55;17.50;67.70
39325;DHT22;25037;49.488;9.900;2023-07-22T00:47:22;17.60;67.60
39325;DHT22;25037;49.488;9.900;2023-07-22T00:49:49;17.60;67.50
39325;DHT22;25037;49.488;9.900;2023-07-22T00:52:17;17.60;67.60
39325;DHT22;25037;49.488;9.900;2023-07-22T00:54:44;17.70;67.70
39325;DHT22;25037;49.488;9.900;2023-07-22T00:57:11;17.70;67.80
39325;DHT22;25037;49.488;9.900;2023-07-22T00:59:39;17.70;67.80
39325;DHT22;25037;49.488;9.900;2023-07-22T01:02:07;17.80;67.80
39325;DHT22;25037;49.488;9.900;2023-07-22T01:04:34;17.80;67.70
39325;DHT22;25037;49.488;9.900;2023-07-22T01:07:03;17.80;67.80
39325;DHT22;25037;49.488;9.900;2023-07-22T01:14:57;17.80;67.60
39325;DHT22;25037;49.488;9.900;2023-07-22T01:17:25;17.90;67.60
39325;DHT22;25037;49.488;9.900;2023-07-22T01:19:55;17.90;67.50
39325;DHT22;25037;49.488;9.900;2023-07-22T01:22:23;17.80;67.60
39325;DHT22;25037;49.488;9.900;2023-07-22T01:24:50;17.90;67.70
39325;DHT22;25037;49.488;9.900;2023-07-22T01:27:17;17.90;67.70
39325;DHT22;25037;49.488;9.900;2023-07-22T01:29:44;17.90;67.60
39325;DHT22;25037;49.488;9.900;2023-07-22T01:32:10;17.90;67.40
39325;DHT22;25037;49.488;9.900;2023-07-22T01:34:37;17.90;67.40
39325;DHT22;25037;49.488;9.900;2023-07-22T01:37:04;17.90;67.30
39325;DHT22;25037;49.488;9.900;2023-07-22T01:39:31;17.90;67.20
39325;DHT22;25037;49.488;9.900;2023-07-22T01:41:58;17.90;67.40
39325;DHT22;25037;49.488;9.900;2023-07-22T01:44:24;17.90;67.40
39325;DHT22;25037;49.488;9.900;2023-07-22T01:46:51;17.90;67.40
39325;DHT22;25037;49.488;9.900;2023-07-22T01:49:18;18.00;67.50
39325;DHT22;25037;49.488;9.900;2023-07-22T01:51:45;18.00;67.40
39325;DHT22;25037;49.488;9.900;2023-07-22T01:54:12;18.00;67.50
39325;DHT22;25037;49.488;9.900;2023-07-22T01:56:39;18.00;67.50
39325;DHT22;25037;49.488;9.900;2023-07-22T01:59:06;18.00;67.60
39325;DHT22;25037;49.488;9.900;2023-07-22T02:01:32;18.00;67.60
39325;DHT22;25037;49.488;9.900;2023-07-22T02:03:59;18.00;67.40
39325;DHT22;25037;49.488;9.900;2023-07-22T02:06:27;18.10;67.40
39325;DHT22;25037;49.488;9.900;2023-07-22T02:08:56;18.10;67.50
39325;DHT22;25037;49.488;9.900;2023-07-22T02:11:23;18.10;67.50
39325;DHT22;25037;49.488;9.900;2023-07-22T02:13:50;18.10;67.50
39325;DHT22;25037;49.488;9.900;2023-07-22T02:16:16;18.10;67.50
39325;DHT22;25037;49.488;9.900;2023-07-22T02:18:43;18.10;67.30
39325;DHT22;25037;49.488;9.900;2023-07-22T02:21:10;18.10;67.30
39325;DHT22;25037;49.488;9.900;2023-07-22T02:23:37;18.10;67.40
39325;DHT22;25037;49.488;9.900;2023-07-22T02:26:03;18.20;67.20
39325;DHT22;25037;49.488;9.900;2023-07-22T02:28:30;18.20;67.20
39325;DHT22;25037;49.488;9.900;2023-07-22T02:31:01;18.20;67.30
39325;DHT22;25037;49.488;9.900;2023-07-22T02:33:28;18.10;67.40
39325;DHT22;25037;49.488;9.900;2023-07-22T02:35:55;18.20;67.50
39325;DHT22;25037;49.488;9.900;2023-07-22T02:38:22;18.20;67.30
39325;DHT22;25037;49.488;9.900;2023-07-22T02:40:49;18.20;67.30
39325;DHT22;25037;49.488;9.900;2023-07-22T02:43:15;18.30;67.40
39325;DHT22;25037;49.488;9.900;2023-07-22T02:45:42;18.20;67.40
39325;DHT22;25037;49.488;9.900;2023-07-22T02:48:09;18.20;67.50
39325;DHT22;25037;49.488;9.900;2023-07-22T02:50:35;18.20;67.50
39325;DHT22;25037;49.488;9.900;2023-07-22T02:53:03;18.20;67.60
39325;DHT22;25037;49.488;9.900;2023-07-22T02:55:30;18.20;67.60
39325;DHT22;25037;49.488;9.900;2023-07-22T02:57:57;18.20;67.70
39325;DHT22;25037;49.488;9.900;2023-07-22T03:00:23;18.20;67.70
39325;DHT22;25037;49.488;9.900;2023-07-22T03:02:55;18.20;67.50
39325;DHT22;25037;49.488;9.900;2023-07-22T03:05:28;18.20;67.50
39325;DHT22;25037;49.488;9.900;2023-07-22T03:07:56;18.20;67.50
39325;DHT22;25037;49.488;9.900;2023-07-22T03:10:23;18.10;67.70
39325;DHT22;25037;49.488;9.900;2023-07-22T03:12:52;18.10;67.80
39325;DHT22;25037;49.488;9.900;2023-07-22T03:15:25;18.10;67.90
39325;DHT22;25037;49.488;9.900;2023-07-22T03:17:55;18.00;67.90
39325;DHT22;25037;49.488;9.900;2023-07-22T03:20:23;18.00;67.70
39325;DHT22;25037;49.488;9.900;2023-07-22T03:22:51;18.00;67.70
39325;DHT22;25037;49.488;9.900;2023-07-22T03:25:19;18.00;67.80
39325;DHT22;25037;49.488;9.900;2023-07-22T03:27:46;17.90;67.90
39325;DHT22;25037;49.488;9.900;2023-07-22T03:30:16;17.90;67.90
39325;DHT22;25037;49.488;9.900;2023-07-22T03:32:47;17.90;68.00
39325;DHT22;25037;49.488;9.900;2023-07-22T03:35:14;17.80;68.10
39325;DHT22;25037;49.488;9.900;2023-07-22T03:37:41;17.80;68.00
39325;DHT22;25037;49.488;9.900;2023-07-22T03:40:08;17.80;68.00
39325;DHT22;25037;49.488;9.900;2023-07-22T03:42:40;17.80;67.80
39325;DHT22;25037;49.488;9.900;2023-07-22T03:45:08;17.70;67.90
39325;DHT22;25037;49.488;9.900;2023-07-22T03:47:39;17.70;68.10
39325;DHT22;25037;49.488;9.900;2023-07-22T03:50:07;17.70;68.20
39325;DHT22;25037;49.488;9.900;2023-07-22T03:52:33;17.80;68.30
39325;DHT22;25037;49.488;9.900;2023-07-22T03:55:00;17.70;68.30
39325;DHT22;25037;49.488;9.900;2023-07-22T03:57:28;17.70;68.10
39325;DHT22;25037;49.488;9.900;2023-07-22T03:59:55;17.70;68.10
39325;DHT22;25037;49.488;9.900;2023-07-22T04:02:22;17.70;68.10
39325;DHT22;25037;49.488;9.900;2023-07-22T04:04:51;17.60;68.20
39325;DHT22;25037;49.488;9.900;2023-07-22T04:07:18;17.60;68.30
39325;DHT22;25037;49.488;9.900;2023-07-22T04:09:44;17.70;68.40
39325;DHT22;25037;49.488;9.900;2023-07-22T04:12:11;17.70;68.20
39325;DHT22;25037;49.488;9.900;2023-07-22T04:14:38;17.70;68.00
39325;DHT22;25037;49.488;9.900;2023-07-22T04:17:05;17.70;67.90
39325;DHT22;25037;49.488;9.900;2023-07-22T04:19:32;17.70;67.90
39325;DHT22;25037;49.488;9.900;2023-07-22T04:21:58;17.70;68.00
39325;DHT22;25037;49.488;9.900;2023-07-22T04:24:25;17.70;67.80
39325;DHT22;25037;49.488;9.900;2023-07-22T04:26:52;17.70;67.80
39325;DHT22;25037;49.488;9.900;2023-07-22T04:29:19;17.80;67.90
39325;DHT22;25037;49.488;9.900;2023-07-22T04:31:46;17.80;67.70
39325;DHT22;25037;49.488;9.900;2023-07-22T04:34:13;17.90;67.70
39325;DHT22;25037;49.488;9.900;2023-07-22T04:36:39;17.90;67.50
39325;DHT22;25037;49.488;9.900;2023-07-22T04:39:06;17.90;67.50
39325;DHT22;25037;49.488;9.900;2023-07-22T04:41:34;18.00;67.60
39325;DHT22;25037;49.488;9.900;2023-07-22T04:44:00;18.00;67.70
39325;DHT22;25037;49.488;9.900;2023-07-22T04:46:27;18.00;67.60
39325;DHT22;25037;49.488;9.900;2023-07-22T04:48:56;18.00;67.70
39325;DHT22;25037;49.488;9.900;2023-07-22T04:51:24;18.00;67.90
39325;DHT22;25037;49.488;9.900;2023-07-22T04:53:51;18.00;68.20
39325;DHT22;25037;49.488;9.900;2023-07-22T04:56:18;18.00;68.10
39325;DHT22;25037;49.488;9.900;2023-07-22T04:58:44;18.00;68.20
39325;DHT22;25037;49.488;9.900;2023-07-22T05:01:11;18.00;68.10
39325;DHT22;25037;49.488;9.900;2023-07-22T05:03:38;17.90;68.10
39325;DHT22;25037;49.488;9.900;2023-07-22T05:06:05;17.90;68.40
39325;DHT22;25037;49.488;9.900;2023-07-22T05:08:31;17.90;68.50
39325;DHT22;25037;49.488;9.900;2023-07-22T05:10:58;17.90;68.50
39325;DHT22;25037;49.488;9.900;2023-07-22T05:13:27;17.90;68.40
39325;DHT22;25037;49.488;9.900;2023-07-22T05:15:54;17.90;68.40
39325;DHT22;25037;49.488;9.900;2023-07-22T05:18:21;17.80;68.10
39325;DHT22;25037;49.488;9.900;2023-07-22T05:20:47;17.80;68.10
39325;DHT22;25037;49.488;9.900;2023-07-22T05:23:14;17.80;67.90
39325;DHT22;25037;49.488;9.900;2023-07-22T05:25:41;17.80;68.10
39325;DHT22;25037;49.488;9.900;2023-07-22T05:28:07;17.80;68.30
39325;DHT22;25037;49.488;9.900;2023-07-22T05:30:34;17.80;68.20
39325;DHT22;25037;49.488;9.900;2023-07-22T05:33:02;17.90;68.20
39325;DHT22;25037;49.488;9.900;2023-07-22T05:35:29;18.00;68.30
39325;DHT22;25037;49.488;9.900;2023-07-22T05:37:55;18.00;68.30
39325;DHT22;25037;49.488;9.900;2023-07-22T05:40:22;18.00;68.40
39325;DHT22;25037;49.488;9.900;2023-07-22T05:42:49;18.00;68.10
39325;DHT22;25037;49.488;9.900;2023-07-22T05:45:15;18.10;68.20
39325;DHT22;25037;49.488;9.900;2023-07-22T05:47:43;18.10;68.00
39325;DHT22;25037;49.488;9.900;2023-07-22T05:50:09;18.10;68.10
39325;DHT22;25037;49.488;9.900;2023-07-22T05:52:36;18.10;68.10
39325;DHT22;25037;49.488;9.900;2023-07-22T05:55:03;18.20;67.90
39325;DHT22;25037;49.488;9.900;2023-07-22T05:57:31;18.20;68.00
39325;DHT22;25037;49.488;9.900;2023-07-22T05:59:57;18.30;68.10
39325;DHT22;25037;49.488;9.900;2023-07-22T06:02:35;18.30;68.20
39325;DHT22;25037;49.488;9.900;2023-07-22T06:05:01;18.30;68.30
39325;DHT22;25037;49.488;9.900;2023-07-22T06:07:28;18.30;68.40
39325;DHT22;25037;49.488;9.900;2023-07-22T06:09:55;18.40;68.50
39325;DHT22;25037;49.488;9.900;2023-07-22T06:12:22;18.30;68.50
39325;DHT22;25037;49.488;9.900;2023-07-22T06:14:48;18.30;68.40
39325;DHT22;25037;49.488;9.900;2023-07-22T06:17:16;18.30;68.50
39325;DHT22;25037;49.488;9.900;2023-07-22T06:19:42;18.40;68.60
39325;DHT22;25037;49.488;9.900;2023-07-22T06:22:09;18.40;68.50
39325;DHT22;25037;49.488;9.900;2023-07-22T06:24:36;18.40;68.60
39325;DHT22;25037;49.488;9.900;2023-07-22T06:27:03;18.50;68.50
39325;DHT22;25037;49.488;9.900;2023-07-22T06:29:30;18.50;68.50
39325;DHT22;25037;49.488;9.900;2023-07-22T06:31:56;18.60;68.40
39325;DHT22;25037;49.488;9.900;2023-07-22T06:34:23;18.50;68.20
39325;DHT22;25037;49.488;9.900;2023-07-22T06:36:50;18.60;68.50
39325;DHT22;25037;49.488;9.900;2023-07-22T06:39:16;18.50;68.30
39325;DHT22;25037;49.488;9.900;2023-07-22T06:41:43;18.60;68.30
39325;DHT22;25037;49.488;9.900;2023-07-22T06:44:09;18.60;68.20
39325;DHT22;25037;49.488;9.900;2023-07-22T06:46:36;18.60;68.30
39325;DHT22;25037;49.488;9.900;2023-07-22T06:49:03;18.70;68.10
39325;DHT22;25037;49.488;9.900;2023-07-22T06:51:29;18.70;68.20
39325;DHT22;25037;49.488;9.900;2023-07-22T06:53:56;18.70;68.10
39325;DHT22;25037;49.488;9.900;2023-07-22T06:56:23;18.70;68.20
39325;DHT22;25037;49.488;9.900;2023-07-22T06:58:49;18.70;68.10
39325;DHT22;25037;49.488;9.900;2023-07-22T07:01:17;18.80;68.20
39325;DHT22;25037;49.488;9.900;2023-07-22T07:03:44;18.80;68.20
39325;DHT22;25037;49.488;9.900;2023-07-22T07:06:11;18.90;68.20
39325;DHT22;25037;49.488;9.900;2023-07-22T07:08:38;18.90;68.30
39325;DHT22;25037;49.488;9.900;2023-07-22T07:11:06;18.90;68.20
39325;DHT22;25037;49.488;9.900;2023-07-22T07:13:33;19.00;68.30
39325;DHT22;25037;49.488;9.900;2023-07-22T07:16:24;19.00;68.20
39325;DHT22;25037;49.488;9.900;2023-07-22T07:18:52;19.10;68.00
39325;DHT22;25037;49.488;9.900;2023-07-22T07:21:19;19.20;68.00
39325;DHT22;25037;49.488;9.900;2023-07-22T07:23:47;19.30;68.00
39325;DHT22;25037;49.488;9.900;2023-07-22T07:26:14;19.40;67.90
39325;DHT22;25037;49.488;9.900;2023-07-22T07:28:42;19.60;67.80
39325;DHT22;25037;49.488;9.900;2023-07-22T07:31:08;19.70;67.60
39325;DHT22;25037;49.488;9.900;2023-07-22T07:33:35;19.90;67.40
39325;DHT22;25037;49.488;9.900;2023-07-22T07:36:03;20.10;66.70
39325;DHT22;25037;49.488;9.900;2023-07-22T07:38:30;20.20;66.30
39325;DHT22;25037;49.488;9.900;2023-07-22T07:41:03;20.30;66.10
39325;DHT22;25037;49.488;9.900;2023-07-22T07:43:30;20.50;66.00
39325;DHT22;25037;49.488;9.900;2023-07-22T07:46:14;20.60;65.80
39325;DHT22;25037;49.488;9.900;2023-07-22T07:48:45;20.70;65.70
39325;DHT22;25037;49.488;9.900;2023-07-22T07:51:13;20.80;65.70
39325;DHT22;25037;49.488;9.900;2023-07-22T07:53:41;20.90;65.20
39325;DHT22;25037;49.488;9.900;2023-07-22T07:56:08;21.10;64.80
39325;DHT22;25037;49.488;9.900;2023-07-22T07:58:35;21.30;64.30
39325;DHT22;25037;49.488;9.900;2023-07-22T08:01:03;21.70;63.80
39325;DHT22;25037;49.488;9.900;2023-07-22T08:03:30;21.90;63.10
39325;DHT22;25037;49.488;9.900;2023-07-22T08:05:58;22.10;63.00
39325;DHT22;25037;49.488;9.900;2023-07-22T08:08:25;22.30;62.80
39325;DHT22;25037;49.488;9.900;2023-07-22T08:13:29;22.40;62.20
39325;DHT22;25037;49.488;9.900;2023-07-22T08:15:58;22.30;62.10
39325;DHT22;25037;49.488;9.900;2023-07-22T08:18:25;22.30;62.10
39325;DHT22;25037;49.488;9.900;2023-07-22T08:20:55;22.30;62.10
39325;DHT22;25037;49.488;9.900;2023-07-22T08:23:23;22.20;62.10
39325;DHT22;25037;49.488;9.900;2023-07-22T08:25:50;22.10;62.20
39325;DHT22;25037;49.488;9.900;2023-07-22T08:28:17;22.10;62.30
39325;DHT22;25037;49.488;9.900;2023-07-22T08:30:44;22.00;62.20
39325;DHT22;25037;49.488;9.900;2023-07-22T08:33:12;22.10;62.00
39325;DHT22;25037;49.488;9.900;2023-07-22T08:35:42;22.20;61.80
39325;DHT22;25037;49.488;9.900;2023-07-22T08:38:09;22.40;61.50
39325;DHT22;25037;49.488;9.900;2023-07-22T08:40:38;22.60;61.40
39325;DHT22;25037;49.488;9.900;2023-07-22T08:43:09;22.80;61.00
39325;DHT22;25037;49.488;9.900;2023-07-22T08:45:38;23.00;60.60
39325;DHT22;25037;49.488;9.900;2023-07-22T08:48:09;23.20;60.30
39325;DHT22;25037;49.488;9.900;2023-07-22T08:50:59;23.50;59.60
39325;DHT22;25037;49.488;9.900;2023-07-22T08:53:27;23.80;58.80
39325;DHT22;25037;49.488;9.900;2023-07-22T08:55:54;24.00;58.50
39325;DHT22;25037;49.488;9.900;2023-07-22T08:58:22;24.20;57.90
39325;DHT22;25037;49.488;9.900;2023-07-22T09:00:51;24.40;57.50
39325;DHT22;25037;49.488;9.900;2023-07-22T09:03:18;24.40;56.90
39325;DHT22;25037;49.488;9.900;2023-07-22T09:05:45;24.60;56.60
39325;DHT22;25037;49.488;9.900;2023-07-22T09:08:13;24.80;56.50
39325;DHT22;25037;49.488;9.900;2023-07-22T09:10:40;25.00;56.20
39325;DHT22;25037;49.488;9.900;2023-07-22T09:13:08;25.30;55.70
39325;DHT22;25037;49.488;9.900;2023-07-22T09:15:36;25.50;55.00
39325;DHT22;25037;49.488;9.900;2023-07-22T09:18:03;25.70;54.40
39325;DHT22;25037;49.488;9.900;2023-07-22T09:20:31;25.80;54.20
39325;DHT22;25037;49.488;9.900;2023-07-22T09:22:59;26.00;53.90
39325;DHT22;25037;49.488;9.900;2023-07-22T09:25:40;26.10;53.10
39325;DHT22;25037;49.488;9.900;2023-07-22T09:28:07;26.20;53.10
39325;DHT22;25037;49.488;9.900;2023-07-22T09:30:39;26.40;53.10
39325;DHT22;25037;49.488;9.900;2023-07-22T09:33:22;26.60;52.60
39325;DHT22;25037;49.488;9.900;2023-07-22T09:35:50;26.70;52.90
39325;DHT22;25037;49.488;9.900;2023-07-22T09:38:26;26.90;52.50
39325;DHT22;25037;49.488;9.900;2023-07-22T09:40:53;27.10;51.80
39325;DHT22;25037;49.488;9.900;2023-07-22T09:43:23;27.30;51.40
39325;DHT22;25037;49.488;9.900;2023-07-22T09:45:50;27.70;50.80
39325;DHT22;25037;49.488;9.900;2023-07-22T09:48:16;28.00;50.10
39325;DHT22;25037;49.488;9.900;2023-07-22T09:50:44;28.30;49.40
39325;DHT22;25037;49.488;9.900;2023-07-22T09:53:15;28.50;48.80
39325;DHT22;25037;49.488;9.900;2023-07-22T09:55:43;28.60;46.80
39325;DHT22;25037;49.488;9.900;2023-07-22T09:58:10;28.60;47.20
39325;DHT22;25037;49.488;9.900;2023-07-22T10:00:42;28.70;46.50
39325;DHT22;25037;49.488;9.900;2023-07-22T10:03:15;28.60;46.10
39325;DHT22;25037;49.488;9.900;2023-07-22T10:05:45;28.40;46.20
39325;DHT22;25037;49.488;9.900;2023-07-22T10:08:18;28.40;45.80
39325;DHT22;25037;49.488;9.900;2023-07-22T10:10:45;28.60;45.60
39325;DHT22;25037;49.488;9.900;2023-07-22T10:13:12;28.70;45.40
39325;DHT22;25037;49.488;9.900;2023-07-22T10:15:39;28.70;45.30
39325;DHT22;25037;49.488;9.900;2023-07-22T10:18:06;28.80;44.60
39325;DHT22;25037;49.488;9.900;2023-07-22T10:20:33;28.80;44.30
39325;DHT22;25037;49.488;9.900;2023-07-22T10:23:03;28.80;44.00
39325;DHT22;25037;49.488;9.900;2023-07-22T10:25:30;29.10;43.60
39325;DHT22;25037;49.488;9.900;2023-07-22T10:27:57;29.30;43.00
39325;DHT22;25037;49.488;9.900;2023-07-22T10:30:24;29.20;43.00
39325;DHT22;25037;49.488;9.900;2023-07-22T10:32:52;29.30;41.90
39325;DHT22;25037;49.488;9.900;2023-07-22T10:38:09;29.80;40.80
39325;DHT22;25037;49.488;9.900;2023-07-22T10:40:56;30.10;40.40
39325;DHT22;25037;49.488;9.900;2023-07-22T10:43:29;30.40;40.30
39325;DHT22;25037;49.488;9.900;2023-07-22T10:45:58;30.60;39.30
39325;DHT22;25037;49.488;9.900;2023-07-22T10:48:27;30.60;38.60
39325;DHT22;25037;49.488;9.900;2023-07-22T10:51:00;30.40;38.40
39325;DHT22;25037;49.488;9.900;2023-07-22T10:53:30;30.70;38.60
39325;DHT22;25037;49.488;9.900;2023-07-22T11:06:39;30.40;36.70
39325;DHT22;25037;49.488;9.900;2023-07-22T11:09:06;30.20;37.40
39325;DHT22;25037;49.488;9.900;2023-07-22T11:11:37;30.00;37.50
39325;DHT22;25037;49.488;9.900;2023-07-22T11:14:18;29.90;37.40
39325;DHT22;25037;49.488;9.900;2023-07-22T11:16:47;30.00;37.70
39325;DHT22;25037;49.488;9.900;2023-07-22T11:19:15;30.10;37.60
39325;DHT22;25037;49.488;9.900;2023-07-22T11:21:43;30.10;37.60
39325;DHT22;25037;49.488;9.900;2023-07-22T11:24:10;30.10;37.30
39325;DHT22;25037;49.488;9.900;2023-07-22T11:26:37;30.10;37.00
39325;DHT22;25037;49.488;9.900;2023-07-22T11:29:06;30.20;37.30
39325;DHT22;25037;49.488;9.900;2023-07-22T11:31:37;30.40;37.00
39325;DHT22;25037;49.488;9.900;2023-07-22T11:34:05;30.50;36.80
39325;DHT22;25037;49.488;9.900;2023-07-22T11:36:32;30.50;36.70
39325;DHT22;25037;49.488;9.900;2023-07-22T11:39:04;30.60;36.80
39325;DHT22;25037;49.488;9.900;2023-07-22T11:41:32;30.70;36.80
39325;DHT22;25037;49.488;9.900;2023-07-22T11:44:00;30.90;36.10
39325;DHT22;25037;49.488;9.900;2023-07-22T11:46:27;31.00;36.00
39325;DHT22;25037;49.488;9.900;2023-07-22T11:48:55;31.20;35.30
39325;DHT22;25037;49.488;9.900;2023-07-22T11:51:23;31.20;35.40
39325;DHT22;25037;49.488;9.900;2023-07-22T11:53:53;31.20;35.10
39325;DHT22;25037;49.488;9.900;2023-07-22T11:56:27;31.00;34.30
39325;DHT22;25037;49.488;9.900;2023-07-22T11:58:55;30.70;35.00
39325;DHT22;25037;49.488;9.900;2023-07-22T12:01:23;30.50;34.40
39325;DHT22;25037;49.488;9.900;2023-07-22T12:03:55;30.20;35.20
39325;DHT22;25037;49.488;9.900;2023-07-22T12:06:25;30.10;35.40
39325;DHT22;25037;49.488;9.900;2023-07-22T12:08:53;30.00;35.50
39325;DHT22;25037;49.488;9.900;2023-07-22T12:11:21;30.00;36.00
39325;DHT22;25037;49.488;9.900;2023-07-22T12:14:11;30.00;35.70
39325;DHT22;25037;49.488;9.900;2023-07-22T12:16:41;30.10;35.50
39325;DHT22;25037;49.488;9.900;2023-07-22T12:19:09;30.10;35.70
39325;DHT22;25037;49.488;9.900;2023-07-22T12:21:36;30.30;35.60
39325;DHT22;25037;49.488;9.900;2023-07-22T12:24:03;30.70;35.30
39325;DHT22;25037;49.488;9.900;2023-07-22T12:26:30;30.70;34.90
39325;DHT22;25037;49.488;9.900;2023-07-22T12:28:57;30.70;34.80
39325;DHT22;25037;49.488;9.900;2023-07-22T12:31:24;30.70;34.70
39325;DHT22;25037;49.488;9.900;2023-07-22T12:33:51;30.80;34.90
39325;DHT22;25037;49.488;9.900;2023-07-22T12:36:18;30.80;34.40
39325;DHT22;25037;49.488;9.900;2023-07-22T12:38:45;30.80;33.90
39325;DHT22;25037;49.488;9.900;2023-07-22T12:41:12;30.80;34.70
39325;DHT22;25037;49.488;9.900;2023-07-22T12:43:38;30.90;34.40
39325;DHT22;25037;49.488;9.900;2023-07-22T12:46:05;30.90;34.20
39325;DHT22;25037;49.488;9.900;2023-07-22T12:48:32;31.00;34.10
39325;DHT22;25037;49.488;9.900;2023-07-22T12:50:59;31.20;34.10
39325;DHT22;25037;49.488;9.900;2023-07-22T12:53:27;31.30;34.30
39325;DHT22;25037;49.488;9.900;2023-07-22T12:55:57;31.40;34.00
39325;DHT22;25037;49.488;9.900;2023-07-22T12:58:24;31.40;33.70
39325;DHT22;25037;49.488;9.900;2023-07-22T13:00:51;31.30;33.50
39325;DHT22;25037;49.488;9.900;2023-07-22T13:03:17;31.10;34.10
39325;DHT22;25037;49.488;9.900;2023-07-22T13:05:44;30.90;34.00
39325;DHT22;25037;49.488;9.900;2023-07-22T13:08:15;30.80;34.00
39325;DHT22;25037;49.488;9.900;2023-07-22T13:10:41;30.90;34.40
39325;DHT22;25037;49.488;9.900;2023-07-22T13:13:11;31.00;33.90
39325;DHT22;25037;49.488;9.900;2023-07-22T13:15:37;31.20;33.90
39325;DHT22;25037;49.488;9.900;2023-07-22T13:18:04;31.00;33.70
39325;DHT22;25037;49.488;9.900;2023-07-22T13:20:31;31.00;34.50
39325;DHT22;25037;49.488;9.900;2023-07-22T13:22:58;30.90;33.80
39325;DHT22;25037;49.488;9.900;2023-07-22T13:25:24;30.80;33.90
39325;DHT22;25037;49.488;9.900;2023-07-22T13:27:51;30.70;33.80
39325;DHT22;25037;49.488;9.900;2023-07-22T13:30:18;30.80;34.30
39325;DHT22;25037;49.488;9.900;2023-07-22T13:32:45;30.90;34.10
39325;DHT22;25037;49.488;9.900;2023-07-22T13:35:11;31.00;34.10
39325;DHT22;25037;49.488;9.900;2023-07-22T13:37:38;30.90;33.80
39325;DHT22;25037;49.488;9.900;2023-07-22T13:40:05;30.70;33.80
39325;DHT22;25037;49.488;9.900;2023-07-22T13:42:38;30.60;33.70
39325;DHT22;25037;49.488;9.900;2023-07-22T13:45:05;30.50;33.30
39325;DHT22;25037;49.488;9.900;2023-07-22T13:47:32;30.40;33.70
39325;DHT22;25037;49.488;9.900;2023-07-22T13:49:59;30.50;33.80
39325;DHT22;25037;49.488;9.900;2023-07-22T13:52:26;30.70;33.50
39325;DHT22;25037;49.488;9.900;2023-07-22T13:54:52;30.70;33.50
39325;DHT22;25037;49.488;9.900;2023-07-22T13:57:19;30.70;33.60
39325;DHT22;25037;49.488;9.900;2023-07-22T13:59:46;30.70;33.80
39325;DHT22;25037;49.488;9.900;2023-07-22T14:02:12;30.70;33.90
39325;DHT22;25037;49.488;9.900;2023-07-22T14:04:39;30.80;33.70
39325;DHT22;25037;49.488;9.900;2023-07-22T14:07:06;30.90;33.50
39325;DHT22;25037;49.488;9.900;2023-07-22T14:09:33;30.80;33.60
39325;DHT22;25037;49.488;9.900;2023-07-22T14:11:59;30.80;33.30
39325;DHT22;25037;49.488;9.900;2023-07-22T14:14:26;30.80;33.30
39325;DHT22;25037;49.488;9.900;2023-07-22T14:16:56;30.80;33.10
39325;DHT22;25037;49.488;9.900;2023-07-22T14:19:24;30.90;33.40
39325;DHT22;25037;49.488;9.900;2023-07-22T14:21:51;31.00;33.30
39325;DHT22;25037;49.488;9.900;2023-07-22T14:24:18;30.90;33.20
39325;DHT22;25037;49.488;9.900;2023-07-22T14:26:44;30.80;33.30
39325;DHT22;25037;49.488;9.900;2023-07-22T14:29:11;30.60;33.40
39325;DHT22;25037;49.488;9.900;2023-07-22T14:31:38;30.40;33.30
39325;DHT22;25037;49.488;9.900;2023-07-22T14:34:04;30.30;33.60
39325;DHT22;25037;49.488;9.900;2023-07-22T14:36:31;30.10;33.60
39325;DHT22;25037;49.488;9.900;2023-07-22T14:38:58;30.10;33.90
39325;DHT22;25037;49.488;9.900;2023-07-22T14:41:25;30.20;33.70
39325;DHT22;25037;49.488;9.900;2023-07-22T14:43:52;30.30;33.70
39325;DHT22;25037;49.488;9.900;2023-07-22T14:46:18;30.40;33.40
39325;DHT22;25037;49.488;9.900;2023-07-22T14:48:45;30.50;33.60
39325;DHT22;25037;49.488;9.900;2023-07-22T14:51:13;30.50;33.40
39325;DHT22;25037;49.488;9.900;2023-07-22T14:53:39;30.60;33.40
39325;DHT22;25037;49.488;9.900;2023-07-22T14:56:06;30.70;33.00
39325;DHT22;25037;49.488;9.900;2023-07-22T14:58:33;30.70;32.80
39325;DHT22;25037;49.488;9.900;2023-07-22T15:01:00;30.60;32.60
39325;DHT22;25037;49.488;9.900;2023-07-22T15:03:29;30.50;33.00
39325;DHT22;25037;49.488;9.900;2023-07-22T15:05:56;30.40;32.70
39325;DHT22;25037;49.488;9.900;2023-07-22T15:08:23;30.30;32.90
39325;DHT22;25037;49.488;9.900;2023-07-22T15:10:49;30.30;33.10
39325;DHT22;25037;49.488;9.900;2023-07-22T15:13:16;30.30;33.10
39325;DHT22;25037;49.488;9.900;2023-07-22T15:15:45;30.30;32.60
39325;DHT22;25037;49.488;9.900;2023-07-22T15:18:12;30.30;32.40
39325;DHT22;25037;49.488;9.900;2023-07-22T15:20:39;30.30;32.90
39325;DHT22;25037;49.488;9.900;2023-07-22T15:23:05;30.40;32.80
39325;DHT22;25037;49.488;9.900;2023-07-22T15:25:33;30.60;32.70
39325;DHT22;25037;49.488;9.900;2023-07-22T15:28:00;30.60;32.50
39325;DHT22;25037;49.488;9.900;2023-07-22T15:30:26;30.60;32.10
39325;DHT22;25037;49.488;9.900;2023-07-22T15:32:53;30.60;32.00
39325;DHT22;25037;49.488;9.900;2023-07-22T15:35:20;30.60;32.10
39325;DHT22;25037;49.488;9.900;2023-07-22T15:37:50;30.60;31.90
39325;DHT22;25037;49.488;9.900;2023-07-22T15:40:17;30.70;32.00
39325;DHT22;25037;49.488;9.900;2023-07-22T15:42:45;30.70;32.20
39325;DHT22;25037;49.488;9.900;2023-07-22T15:45:11;30.60;32.00
39325;DHT22;25037;49.488;9.900;2023-07-22T15:47:38;30.60;31.70
39325;DHT22;25037;49.488;9.900;2023-07-22T15:50:05;30.50;32.20
39325;DHT22;25037;49.488;9.900;2023-07-22T15:52:32;30.40;32.20
39325;DHT22;25037;49.488;9.900;2023-07-22T15:55:02;30.20;32.10